Altdorf, Wisconsin
Current Conditions -  °F | °C
As of 12:54 PM on Saturday 20 Dec 2014 (Local Time) from KISW Reporting Station
Overcast Overcast  
Wind Chill: 24°   Ceiling: 2200
Heat Index: 30°   Visibility: 8mi
Dew Point: 23°   Wind: 6mph
Humidity: 75%   Direction: 170°S
Pressure: 30.21"   Gusts: NA
Location:  44.4583°N, 90.0009°W
Report Text: KISW 201854Z AUTO 17005KT 8SM OVC022 M01/M05 A3021 RMK AO2 SLP245 T10111050
Loading
Personal Weather Stations






























Interactive Weather Map New forecast layout! Learn more

10-Day Weather Forecast

Advertisements
Track Severe Weather on mobile